createdAt,value
2023-05-12T00:00:26.933Z,10.27
2023-05-12T00:02:54.475Z,10.20
2023-05-12T00:05:22.127Z,9.87
2023-05-12T00:07:49.534Z,9.50
2023-05-12T00:10:17.231Z,10.13
2023-05-12T00:12:44.726Z,10.13
2023-05-12T00:15:13.780Z,9.98
2023-05-12T00:17:41.377Z,8.67
2023-05-12T00:20:09.985Z,9.20
2023-05-12T00:22:37.420Z,9.57
2023-05-12T00:25:05.669Z,10.50
2023-05-12T00:27:33.085Z,9.40
2023-05-12T00:30:00.596Z,10.03
2023-05-12T00:32:29.442Z,10.63
2023-05-12T00:34:57.302Z,10.18
2023-05-12T00:37:24.708Z,11.13
2023-05-12T00:39:52.217Z,9.95
2023-05-12T00:42:19.650Z,10.57
2023-05-12T00:44:47.679Z,8.60
2023-05-12T00:47:15.379Z,10.02
2023-05-12T00:49:44.454Z,9.20
2023-05-12T00:52:11.927Z,9.93
2023-05-12T00:54:41.487Z,9.83
2023-05-12T00:57:09.287Z,8.95
2023-05-12T00:59:37.356Z,8.00
2023-05-12T01:02:05.711Z,9.07
2023-05-12T01:04:33.648Z,8.77
2023-05-12T01:07:07.198Z,8.17
2023-05-12T01:09:34.593Z,9.45
2023-05-12T01:12:02.177Z,9.02
2023-05-12T01:14:29.610Z,8.50
2023-05-12T01:17:01.623Z,8.15
2023-05-12T01:19:41.160Z,9.03
2023-05-12T01:22:11.144Z,8.85
2023-05-12T01:24:48.051Z,9.23
2023-05-12T01:27:18.373Z,8.90
2023-05-12T01:29:48.294Z,9.70
2023-05-12T01:32:16.071Z,8.13
2023-05-12T01:34:44.601Z,8.80
2023-05-12T01:37:12.550Z,8.68
2023-05-12T01:39:40.055Z,7.65
2023-05-12T01:42:07.710Z,8.27
2023-05-12T01:44:36.516Z,9.83
2023-05-12T01:47:04.789Z,7.47
2023-05-12T01:49:32.221Z,8.52
2023-05-12T01:51:59.706Z,8.43
2023-05-12T01:54:27.473Z,7.90
2023-05-12T01:56:54.892Z,8.33
2023-05-12T01:59:22.339Z,7.68
2023-05-12T02:01:51.189Z,7.50
2023-05-12T02:04:18.646Z,7.43
2023-05-12T02:06:46.069Z,7.53
2023-05-12T02:09:13.576Z,7.40
2023-05-12T02:11:41.029Z,7.68
2023-05-12T02:14:08.468Z,7.55
2023-05-12T02:16:35.944Z,7.53
2023-05-12T02:19:05.007Z,7.38
2023-05-12T02:21:32.798Z,7.17
2023-05-12T02:24:00.280Z,7.50
2023-05-12T02:26:27.817Z,7.22
2023-05-12T02:28:55.380Z,7.70
2023-05-12T02:31:22.858Z,6.95
2023-05-12T02:33:51.535Z,5.47
2023-05-12T02:36:20.400Z,6.03
2023-05-12T02:38:47.865Z,4.78
2023-05-12T02:41:15.374Z,4.95
2023-05-12T02:43:42.853Z,5.82
2023-05-12T02:46:10.345Z,5.67
2023-05-12T02:48:37.766Z,5.13
2023-05-12T02:51:05.781Z,5.07
2023-05-12T02:53:34.676Z,5.00
2023-05-12T02:56:02.312Z,5.10
2023-05-12T02:58:29.774Z,5.30
2023-05-12T03:01:09.441Z,4.95
2023-05-12T03:03:38.829Z,6.00
2023-05-12T03:06:07.024Z,5.95
2023-05-12T03:08:36.089Z,6.13
2023-05-12T03:11:03.657Z,5.67
2023-05-12T03:13:31.109Z,6.72
2023-05-12T03:16:01.128Z,6.68
2023-05-12T03:18:29.048Z,7.43
2023-05-12T03:20:56.661Z,6.30
2023-05-12T03:23:24.094Z,6.10
2023-05-12T03:25:52.922Z,6.47
2023-05-12T03:28:20.361Z,7.30
2023-05-12T03:30:47.834Z,6.03
2023-05-12T03:33:15.273Z,5.72
2023-05-12T03:35:42.709Z,6.30
2023-05-12T03:38:10.205Z,6.20
2023-05-12T03:40:37.680Z,6.60
2023-05-12T03:43:06.449Z,6.03
2023-05-12T03:45:33.897Z,6.22
2023-05-12T03:48:01.360Z,6.30
2023-05-12T03:50:28.815Z,6.57
2023-05-12T03:52:56.739Z,5.53
2023-05-12T03:55:24.218Z,5.97
2023-05-12T03:57:51.690Z,5.40
2023-05-12T04:00:21.420Z,4.77
2023-05-12T04:02:49.058Z,5.15
2023-05-12T04:05:16.830Z,5.05
2023-05-12T04:07:44.273Z,4.32
2023-05-12T04:10:11.862Z,4.40
2023-05-12T04:12:39.298Z,4.83
2023-05-12T04:15:08.011Z,4.75
2023-05-12T04:17:36.886Z,4.85
2023-05-12T04:20:04.738Z,4.72
2023-05-12T04:22:32.156Z,4.10
2023-05-12T04:24:59.638Z,3.77
2023-05-12T04:27:27.063Z,4.00
2023-05-12T04:29:54.697Z,3.95
2023-05-12T04:32:22.160Z,3.80
2023-05-12T04:34:51.591Z,4.25
2023-05-12T04:37:19.049Z,3.70
2023-05-12T04:39:46.466Z,3.92
2023-05-12T04:42:13.908Z,4.00
2023-05-12T04:44:41.369Z,3.42
2023-05-12T04:47:08.813Z,3.50
2023-05-12T04:49:36.216Z,3.43
2023-05-12T04:52:05.897Z,3.92
2023-05-12T04:54:33.354Z,3.20
2023-05-12T04:57:00.811Z,3.63
2023-05-12T04:59:28.248Z,3.25
2023-05-12T05:01:55.958Z,3.20
2023-05-12T05:04:23.451Z,2.83
2023-05-12T05:06:50.947Z,3.50
2023-05-12T05:09:19.921Z,3.22
2023-05-12T05:11:47.902Z,3.17
2023-05-12T05:14:15.540Z,3.23
2023-05-12T05:16:42.961Z,3.20
2023-05-12T05:19:20.121Z,3.00
2023-05-12T05:21:49.933Z,2.88
2023-05-12T05:24:17.375Z,3.22
2023-05-12T05:26:46.712Z,2.87
2023-05-12T05:29:14.277Z,2.95
2023-05-12T05:31:41.737Z,2.80
2023-05-12T05:34:09.220Z,3.05
2023-05-12T05:36:36.752Z,2.83
2023-05-12T05:39:04.758Z,2.83
2023-05-12T05:41:32.209Z,2.60
2023-05-12T05:44:01.458Z,2.30
2023-05-12T05:46:28.871Z,1.52
2023-05-12T05:48:56.283Z,1.52
2023-05-12T05:51:23.717Z,1.40
2023-05-12T05:53:51.135Z,1.50
2023-05-12T05:56:18.609Z,1.10
2023-05-12T05:58:49.383Z,1.30
2023-05-12T06:01:18.186Z,1.23
2023-05-12T06:03:45.684Z,1.27
2023-05-12T06:06:13.225Z,1.00
2023-05-12T06:08:40.616Z,0.88
2023-05-12T06:11:08.141Z,1.08
2023-05-12T06:13:36.217Z,1.15
2023-05-12T06:16:03.610Z,1.00
2023-05-12T06:18:33.696Z,0.93
2023-05-12T06:21:01.205Z,1.50
2023-05-12T06:23:28.733Z,1.45
2023-05-12T06:25:56.241Z,1.15
2023-05-12T06:28:23.672Z,1.37
2023-05-12T06:30:51.095Z,1.30
2023-05-12T06:33:18.507Z,1.30
2023-05-12T06:35:47.294Z,1.50
2023-05-12T06:38:14.729Z,1.40
2023-05-12T06:40:42.144Z,1.50
2023-05-12T06:43:09.574Z,1.70
2023-05-12T06:45:37.300Z,1.60
2023-05-12T06:48:05.964Z,1.85
2023-05-12T06:50:33.583Z,1.55
2023-05-12T06:53:02.540Z,1.10
2023-05-12T06:55:30.009Z,1.50
2023-05-12T06:57:57.479Z,1.65
2023-05-12T07:00:26.002Z,1.30
2023-05-12T07:02:53.839Z,1.50
2023-05-12T07:05:21.769Z,1.60
2023-05-12T07:07:49.690Z,1.63
2023-05-12T07:10:20.754Z,0.75
2023-05-12T07:12:48.142Z,0.55
2023-05-12T07:15:15.645Z,0.70
2023-05-12T07:17:43.143Z,0.23
2023-05-12T07:20:10.787Z,0.30
2023-05-12T07:22:38.952Z,0.35
2023-05-12T07:25:07.829Z,0.30
2023-05-12T07:27:36.666Z,0.20
2023-05-12T07:30:04.433Z,0.20
2023-05-12T07:32:31.860Z,0.25
2023-05-12T07:34:59.382Z,0.38
2023-05-12T07:37:26.803Z,0.35
2023-05-12T07:39:54.226Z,0.20
2023-05-12T07:42:22.390Z,0.10
2023-05-12T07:44:51.140Z,0.30
2023-05-12T07:47:18.599Z,0.25
2023-05-12T07:49:46.050Z,0.65
2023-05-12T07:52:13.523Z,0.20
2023-05-12T07:54:40.961Z,0.20
2023-05-12T07:57:08.428Z,0.30
2023-05-12T07:59:35.892Z,0.30
2023-05-12T08:02:05.073Z,0.20
2023-05-12T08:04:32.648Z,0.20
2023-05-12T08:07:00.161Z,0.20
2023-05-12T08:09:27.636Z,0.20
2023-05-12T08:11:55.104Z,0.32
2023-05-12T08:14:25.508Z,0.20
2023-05-12T08:16:52.972Z,0.30
2023-05-12T08:19:21.896Z,0.20
2023-05-12T08:21:49.556Z,0.43
2023-05-12T08:24:16.984Z,0.50
2023-05-12T08:26:44.388Z,0.30
2023-05-12T08:29:11.800Z,0.10
2023-05-12T08:31:39.341Z,0.20
2023-05-12T08:34:10.757Z,0.10
2023-05-12T08:36:40.361Z,0.20
2023-05-12T08:39:10.005Z,0.20
2023-05-12T08:41:43.616Z,0.10
2023-05-12T08:44:12.341Z,0.10
2023-05-12T08:46:40.182Z,0.10
2023-05-12T08:49:13.246Z,0.10
2023-05-12T08:51:46.665Z,0.25
2023-05-12T08:54:19.868Z,0.20
2023-05-12T08:59:18.747Z,0.20
2023-05-12T09:01:47.375Z,0.20
2023-05-12T09:04:15.350Z,0.20
2023-05-12T09:06:45.041Z,0.20
2023-05-12T09:09:14.119Z,0.23
2023-05-12T09:11:43.015Z,0.20
2023-05-12T09:14:13.358Z,0.20
2023-05-12T09:16:44.264Z,0.30
2023-05-12T09:19:12.165Z,0.20
2023-05-12T09:21:40.152Z,0.10
2023-05-12T09:24:09.271Z,0.28
2023-05-12T09:26:46.691Z,0.20
2023-05-12T09:29:23.979Z,0.40
2023-05-12T09:31:58.215Z,0.50
2023-05-12T09:34:28.804Z,0.40
2023-05-12T09:36:57.147Z,0.40
2023-05-12T09:39:26.370Z,0.40
2023-05-12T09:41:53.840Z,0.30
2023-05-12T09:44:22.064Z,0.63
2023-05-12T09:46:49.978Z,0.43
2023-05-12T09:49:20.913Z,0.50
2023-05-12T09:51:52.514Z,0.95
2023-05-12T09:54:28.174Z,0.73
2023-05-12T09:57:01.392Z,0.50
2023-05-12T09:59:32.481Z,0.50
2023-05-12T10:02:01.403Z,0.70
2023-05-12T10:04:30.860Z,1.00
2023-05-12T10:07:00.030Z,0.85
2023-05-12T10:09:33.903Z,0.90
2023-05-12T10:12:02.958Z,1.13
2023-05-12T10:14:30.913Z,0.60
2023-05-12T10:16:58.775Z,1.05
2023-05-12T10:19:26.786Z,0.60
2023-05-12T10:21:56.289Z,0.82
2023-05-12T10:24:27.131Z,1.30
2023-05-12T10:26:56.567Z,0.90
2023-05-12T10:29:29.677Z,0.70
2023-05-12T10:31:58.220Z,0.85
2023-05-12T10:34:31.118Z,0.70
2023-05-12T10:36:59.230Z,0.80
2023-05-12T10:39:30.035Z,0.65
2023-05-12T10:42:06.404Z,0.80
2023-05-12T10:44:33.896Z,0.75
2023-05-12T10:47:01.471Z,1.08
2023-05-12T10:49:37.473Z,0.80
2023-05-12T10:52:06.173Z,0.98
2023-05-12T10:54:40.961Z,1.00
2023-05-12T10:57:18.278Z,1.33
2023-05-12T10:59:50.744Z,1.23
2023-05-12T11:02:21.526Z,1.20
2023-05-12T11:04:51.064Z,1.23
2023-05-12T11:07:22.536Z,1.30
2023-05-12T11:09:58.597Z,1.65
2023-05-12T11:12:32.199Z,1.05
2023-05-12T11:15:01.248Z,1.30
2023-05-12T11:17:28.812Z,1.48
2023-05-12T11:19:56.671Z,1.30
2023-05-12T11:22:24.991Z,1.27
2023-05-12T11:24:53.421Z,1.40
2023-05-12T11:27:22.558Z,1.50
2023-05-12T11:29:59.288Z,1.77
2023-05-12T11:32:27.179Z,1.48
2023-05-12T11:34:54.716Z,2.10
2023-05-12T11:37:22.974Z,1.50
2023-05-12T11:39:52.796Z,1.50
2023-05-12T11:42:23.497Z,1.42
2023-05-12T11:44:52.980Z,1.17
2023-05-12T11:47:21.836Z,0.98
2023-05-12T11:49:50.650Z,1.73
2023-05-12T11:52:19.332Z,1.17
2023-05-12T11:54:50.954Z,1.42
2023-05-12T11:57:26.604Z,1.50
2023-05-12T11:59:58.676Z,0.90
2023-05-12T12:02:28.414Z,1.50
2023-05-12T12:04:56.517Z,1.37
2023-05-12T12:07:32.152Z,2.20
2023-05-12T12:10:00.802Z,2.25
2023-05-12T12:12:28.292Z,1.70
2023-05-12T12:14:59.836Z,1.45
2023-05-12T12:17:31.182Z,1.50
2023-05-12T12:19:58.873Z,1.10
2023-05-12T12:22:26.830Z,0.82
2023-05-12T12:24:54.267Z,0.80
2023-05-12T12:27:21.802Z,1.30
2023-05-12T12:29:49.793Z,1.73
2023-05-12T12:32:17.538Z,1.17
2023-05-12T12:34:46.345Z,1.58
2023-05-12T12:37:14.009Z,1.30
2023-05-12T12:39:41.448Z,1.05
2023-05-12T12:42:09.067Z,1.30
2023-05-12T12:44:36.490Z,1.55
2023-05-12T12:47:04.316Z,1.08
2023-05-12T12:49:31.855Z,1.60
2023-05-12T12:52:00.805Z,1.15
2023-05-12T12:54:28.232Z,1.57
2023-05-12T12:56:56.506Z,1.10
2023-05-12T12:59:24.198Z,1.38
2023-05-12T13:01:51.702Z,1.48
2023-05-12T13:04:22.721Z,0.98
2023-05-12T13:06:50.232Z,1.60
2023-05-12T13:09:19.892Z,1.55
2023-05-12T13:11:47.611Z,2.03
2023-05-12T13:14:15.916Z,1.90
2023-05-12T13:16:43.428Z,2.10
2023-05-12T13:19:11.158Z,2.57
2023-05-12T13:21:38.758Z,2.67
2023-05-12T13:24:06.331Z,2.65
2023-05-12T13:26:35.169Z,2.78
2023-05-12T13:29:02.726Z,2.75
2023-05-12T13:31:30.268Z,3.43
2023-05-12T13:33:57.927Z,2.88
2023-05-12T13:36:25.360Z,3.20
2023-05-12T13:38:52.771Z,2.20
2023-05-12T13:41:20.182Z,2.25
2023-05-12T13:43:49.565Z,2.33
2023-05-12T13:46:17.058Z,2.20
2023-05-12T13:48:44.611Z,2.30
2023-05-12T13:51:12.046Z,2.08
2023-05-12T13:53:39.948Z,2.55
2023-05-12T13:56:08.772Z,2.33
2023-05-12T13:58:36.226Z,1.88
2023-05-12T14:01:07.296Z,1.90
2023-05-12T14:03:36.917Z,1.67
2023-05-12T14:06:04.618Z,2.72
2023-05-12T14:08:32.072Z,2.13
2023-05-12T14:11:01.841Z,2.67
2023-05-12T14:13:29.396Z,3.17
2023-05-12T14:15:58.448Z,2.88
2023-05-12T14:18:27.773Z,3.13
2023-05-12T14:20:55.324Z,3.03
2023-05-12T14:23:22.793Z,2.70
2023-05-12T14:25:50.460Z,2.90
2023-05-12T14:28:17.959Z,2.88
2023-05-12T14:30:45.935Z,3.00
2023-05-12T14:33:13.648Z,2.37
2023-05-12T14:35:43.457Z,2.05
2023-05-12T14:38:18.301Z,2.97
2023-05-12T14:40:47.256Z,2.85
2023-05-12T14:43:14.684Z,1.58
2023-05-12T14:45:42.169Z,2.60
2023-05-12T14:48:10.078Z,2.33
2023-05-12T14:50:37.806Z,2.45
2023-05-12T14:53:06.578Z,1.60
2023-05-12T14:55:34.068Z,2.47
2023-05-12T14:58:01.548Z,1.67
2023-05-12T15:00:29.002Z,1.60
2023-05-12T15:02:56.476Z,2.90
2023-05-12T15:05:32.411Z,2.53
2023-05-12T15:08:12.426Z,2.80
2023-05-12T15:10:39.954Z,1.70
2023-05-12T15:13:07.415Z,2.13
2023-05-12T15:15:35.353Z,1.77
2023-05-12T15:18:02.982Z,2.17
2023-05-12T15:20:30.527Z,1.80
2023-05-12T15:22:57.948Z,2.20
2023-05-12T15:25:26.807Z,1.75
2023-05-12T15:27:54.220Z,2.20
2023-05-12T15:30:21.986Z,2.10
2023-05-12T15:32:49.588Z,1.75
2023-05-12T15:35:17.170Z,2.50
2023-05-12T15:37:44.687Z,1.88
2023-05-12T15:40:13.530Z,2.50
2023-05-12T15:42:42.302Z,1.58
2023-05-12T15:45:11.261Z,1.45
2023-05-12T15:47:38.841Z,2.13
2023-05-12T15:50:07.549Z,1.63
2023-05-12T15:52:35.143Z,2.30
2023-05-12T15:55:02.753Z,1.92
2023-05-12T15:57:30.193Z,2.38
2023-05-12T16:00:00.179Z,1.93
2023-05-12T16:02:27.841Z,2.15
2023-05-12T16:04:55.346Z,2.15
2023-05-12T16:07:22.889Z,1.80
2023-05-12T16:09:50.308Z,1.83
2023-05-12T16:12:17.742Z,2.50
2023-05-12T16:14:45.271Z,2.00
2023-05-12T16:17:14.244Z,2.15
2023-05-12T16:19:41.880Z,2.17
2023-05-12T16:22:09.533Z,1.95
2023-05-12T16:24:37.315Z,1.60
2023-05-12T16:27:05.518Z,1.67
2023-05-12T16:29:33.247Z,2.53
2023-05-12T16:32:00.827Z,3.15
2023-05-12T16:34:29.893Z,5.05
2023-05-12T16:36:57.644Z,2.40
2023-05-12T16:39:25.367Z,1.55
2023-05-12T16:41:52.899Z,2.10
2023-05-12T16:44:23.341Z,1.40
2023-05-12T16:46:51.525Z,1.80
2023-05-12T16:49:19.102Z,1.27
2023-05-12T16:51:47.996Z,2.22
2023-05-12T16:54:15.739Z,1.83
2023-05-12T16:56:43.247Z,1.55
2023-05-12T16:59:12.914Z,1.48
2023-05-12T17:01:40.774Z,1.53
2023-05-12T17:04:11.692Z,1.50
2023-05-12T17:06:39.327Z,1.50
2023-05-12T17:09:08.400Z,1.20
2023-05-12T17:11:36.601Z,1.42
2023-05-12T17:14:04.890Z,2.10
2023-05-12T17:16:32.578Z,1.30
2023-05-12T17:21:30.826Z,2.17
2023-05-12T17:23:58.420Z,2.28
2023-05-12T17:26:27.861Z,1.90
2023-05-12T17:28:55.497Z,1.90
2023-05-12T17:31:23.391Z,2.60
2023-05-12T17:33:53.281Z,2.55
2023-05-12T17:36:20.838Z,2.15
2023-05-12T17:38:48.573Z,1.90
2023-05-12T17:41:16.128Z,1.98
2023-05-12T17:43:45.090Z,2.45
2023-05-12T17:46:12.654Z,2.63
2023-05-12T17:48:40.264Z,2.72
2023-05-12T17:51:08.214Z,3.40
2023-05-12T17:53:36.183Z,2.70
2023-05-12T17:56:03.807Z,2.55
2023-05-12T17:58:31.349Z,2.95
2023-05-12T18:01:00.392Z,3.50
2023-05-12T18:03:28.452Z,1.33
2023-05-12T18:05:56.005Z,2.83
2023-05-12T18:08:23.580Z,2.40
2023-05-12T18:10:53.397Z,1.58
2023-05-12T18:13:20.931Z,3.28
2023-05-12T18:15:49.778Z,2.37
2023-05-12T18:18:18.728Z,2.00
2023-05-12T18:20:46.383Z,2.50
2023-05-12T18:23:13.858Z,2.65
2023-05-12T18:25:42.741Z,2.00
2023-05-12T18:28:10.299Z,2.27
2023-05-12T18:30:38.420Z,1.55
2023-05-12T18:33:06.109Z,3.13
2023-05-12T18:35:35.087Z,2.28
2023-05-12T18:38:02.702Z,2.13
2023-05-12T18:40:30.351Z,2.30
2023-05-12T18:42:58.084Z,3.58
2023-05-12T18:45:25.690Z,3.38
2023-05-12T18:47:53.323Z,3.10
2023-05-12T18:50:21.093Z,3.55
2023-05-12T18:52:49.902Z,4.23
2023-05-12T18:55:17.523Z,4.80
2023-05-12T18:57:45.175Z,4.93
2023-05-12T19:00:13.553Z,2.25
2023-05-12T19:02:42.644Z,2.20
2023-05-12T19:05:10.791Z,1.63
2023-05-12T19:07:38.390Z,3.40
2023-05-12T19:10:09.952Z,3.22
2023-05-12T19:12:38.752Z,3.45
2023-05-12T19:15:07.832Z,1.92
2023-05-12T19:17:35.855Z,2.80
2023-05-12T19:20:03.545Z,3.10
2023-05-12T19:22:31.246Z,2.60
2023-05-12T19:24:58.811Z,3.33
2023-05-12T19:27:28.069Z,1.88
2023-05-12T19:29:55.809Z,3.13
2023-05-12T19:32:23.570Z,2.90
2023-05-12T19:34:51.450Z,3.20
2023-05-12T19:37:19.269Z,3.38
2023-05-12T19:39:46.954Z,3.20
2023-05-12T19:42:14.567Z,3.47
2023-05-12T19:44:43.536Z,3.67
2023-05-12T19:47:12.567Z,3.30
2023-05-12T19:49:40.386Z,3.78
2023-05-12T19:52:09.295Z,4.40
2023-05-12T19:54:36.977Z,7.50
2023-05-12T19:57:04.688Z,4.32
2023-05-12T19:59:32.288Z,4.93
2023-05-12T20:02:01.206Z,4.25
2023-05-12T20:04:28.832Z,4.43
2023-05-12T20:06:58.342Z,4.57
2023-05-12T20:09:25.981Z,4.40
2023-05-12T20:11:53.896Z,9.32
2023-05-12T20:14:21.461Z,5.38
2023-05-12T20:16:49.087Z,5.03
2023-05-12T20:19:18.086Z,5.50
2023-05-12T20:21:45.726Z,5.75
2023-05-12T20:24:13.231Z,4.20
2023-05-12T20:26:40.783Z,3.78
2023-05-12T20:29:08.418Z,3.92
2023-05-12T20:31:35.996Z,3.63
2023-05-12T20:34:03.616Z,3.88
2023-05-12T20:36:32.975Z,3.72
2023-05-12T20:39:00.558Z,3.22
2023-05-12T20:41:28.268Z,3.38
2023-05-12T20:43:56.253Z,3.40
2023-05-12T20:46:23.763Z,3.47
2023-05-12T20:48:51.390Z,3.50
2023-05-12T20:51:18.928Z,3.10
2023-05-12T20:53:47.839Z,2.90
2023-05-12T20:56:15.412Z,3.17
2023-05-12T20:58:43.204Z,3.05
2023-05-12T21:01:10.719Z,3.65
2023-05-12T21:03:38.367Z,3.47
2023-05-12T21:06:06.456Z,3.72
2023-05-12T21:08:34.009Z,3.23
2023-05-12T21:11:02.939Z,3.60
2023-05-12T21:13:30.493Z,3.75
2023-05-12T21:15:58.019Z,3.55
2023-05-12T21:18:25.594Z,3.10
2023-05-12T21:20:53.105Z,3.80
2023-05-12T21:23:20.550Z,3.83
2023-05-12T21:25:48.928Z,3.60
2023-05-12T21:28:18.049Z,3.50
2023-05-12T21:30:46.055Z,3.50
2023-05-12T21:33:13.715Z,3.30
2023-05-12T21:35:41.346Z,3.35
2023-05-12T21:38:09.965Z,3.50
2023-05-12T21:40:37.533Z,3.25
2023-05-12T21:43:05.431Z,3.60
2023-05-12T21:45:34.317Z,3.50
2023-05-12T21:48:01.973Z,3.83
2023-05-12T21:50:29.574Z,3.42
2023-05-12T21:52:57.112Z,3.55
2023-05-12T21:55:24.778Z,3.40
2023-05-12T21:57:52.312Z,3.23
2023-05-12T22:00:21.496Z,3.22
2023-05-12T22:02:50.537Z,3.65
2023-05-12T22:05:18.206Z,3.13
2023-05-12T22:07:46.400Z,3.00
2023-05-12T22:10:13.946Z,3.17
2023-05-12T22:12:41.983Z,3.08
2023-05-12T22:15:10.008Z,3.72
2023-05-12T22:17:37.498Z,3.35
2023-05-12T22:20:09.005Z,3.38
2023-05-12T22:22:36.474Z,3.00
2023-05-12T22:25:04.630Z,3.35
2023-05-12T22:27:32.200Z,3.50
2023-05-12T22:29:59.724Z,3.47
2023-05-12T22:32:27.263Z,3.63
2023-05-12T22:34:55.117Z,3.20
2023-05-12T22:37:25.297Z,3.63
2023-05-12T22:39:52.720Z,3.60
2023-05-12T22:42:20.214Z,2.95
2023-05-12T22:44:47.794Z,3.78
2023-05-12T22:47:15.352Z,4.63
2023-05-12T22:49:42.860Z,3.63
2023-05-12T22:52:10.366Z,3.47
2023-05-12T22:54:39.237Z,3.00
2023-05-12T22:57:06.998Z,3.22
2023-05-12T22:59:34.472Z,3.50
2023-05-12T23:02:01.919Z,3.10
2023-05-12T23:04:29.389Z,3.17
2023-05-12T23:06:56.848Z,3.63
2023-05-12T23:09:24.298Z,3.67
2023-05-12T23:11:53.178Z,3.50
2023-05-12T23:14:20.724Z,3.67
2023-05-12T23:16:48.481Z,4.00
2023-05-12T23:19:16.361Z,3.70
2023-05-12T23:21:43.813Z,3.97
2023-05-12T23:24:11.260Z,3.37
2023-05-12T23:26:38.690Z,3.78
2023-05-12T23:29:07.537Z,3.60
2023-05-12T23:31:35.140Z,3.97
2023-05-12T23:34:02.672Z,3.80
2023-05-12T23:36:31.233Z,3.23
2023-05-12T23:38:58.657Z,2.92
2023-05-12T23:41:26.628Z,3.28
2023-05-12T23:43:54.056Z,3.08
2023-05-12T23:46:22.943Z,3.28
2023-05-12T23:48:50.895Z,3.17
2023-05-12T23:51:18.363Z,3.90
2023-05-12T23:53:45.831Z,4.13
2023-05-12T23:56:13.249Z,3.72
2023-05-12T23:58:40.766Z,3.42
